< < Back
Terminal Aerodrome Forecast


Current Version              Previous Versions:   1  2  3  4  5  6  7  8  9  

Terminal Aerodrome Forecast

929
FTUS44 KHUN 301120
TAFHSV
TAF
KHSV 301120Z 3012/3112 04005KT P6SM SCT250
     FM301800 36005KT P6SM SCT050
     FM310100 00000KT P6SM BKN250=

Latest METAR

372
SAUS80 KWBC 311700 RRB
MTRHSV
METAR KHSV 311653Z 07004KT 10SM BKN140 OVC250 26/16 A3010 RMK AO2 SLP185
T02560156


USA.gov is the U.S. government's official web portal to all federal, state and local government web resources and services.